Caledonia, Canada
Current Conditions -  °F | °C
As of 3:00 AM on Friday 24 Oct 2014 (Local Time) from CYHM Reporting Station
Clear Clear  
Wind Chill: 37°   Ceiling: Unl
Heat Index: 37°   Visibility: 15mi
Dew Point: 36°   Wind: 2mph
Humidity: 93%   Direction: NA
Pressure: 30.05"   Gusts: NA
Location:  43.07°N, 79.95°W
Report Text: CYHM 240700Z VRB02KT 15SM SKC 03/02 A3005 RMK SLP178
Loading
Personal Weather Stations






























Interactive Weather Map
Tropical Storm Tracking
New forecast layout! Learn more

10-Day Weather Forecast

Advertisements
Track Severe Weather on mobile